DLH350K LFBO-EDDF
Flight info
| Callsign | DLH350K |
|---|---|
| Flight time | 1h 34m |
| Altitude | 36000 |
| Route | MEN DCT NINUN DCT LATAM DCT ETREK DCT LTP DCT SOPLO DCT OMASI DCT KINNI DCT SOSAL DCT KORED DCT BERSU N871 DITON/N0495F350 DCT LADOL/N0495F360 T163 EMPAX EMPAX5D |
| Aircraft | A359/H-SDE2E3GHIJ3J4J5LM1ORWXY/LB1D1 |
Departure
| Time | 2026-05-07 18:50 |
|---|---|
| Airport | Toulouse-Blagnac Airport (LFBO) |
Arrival
| Time | 2026-05-07 20:24 |
|---|---|
| Airport | Frankfurt Main Airport (EDDF) |
| Time | Latitude | Longitude | Altitude | Speed | Heading |
|---|---|---|---|---|---|
| 2026-05-07 18:26 | 43.62546 | 1.37465 | 501 ft | 0 kts | 323° |
| 2026-05-07 18:45 | 43.62550 | 1.37460 | 501 ft | 1 kts | 322° |
| 2026-05-07 18:45 | 43.62566 | 1.37441 | 501 ft | 5 kts | 314° |
| 2026-05-07 18:46 | 43.62572 | 1.37399 | 501 ft | 6 kts | 264° |
| 2026-05-07 18:46 | 43.62544 | 1.37357 | 501 ft | 7 kts | 200° |
| 2026-05-07 18:46 | 43.62496 | 1.37380 | 501 ft | 10 kts | 149° |
| 2026-05-07 18:46 | 43.62408 | 1.37460 | 500 ft | 19 kts | 142° |
| 2026-05-07 18:47 | 43.62292 | 1.37581 | 501 ft | 23 kts | 143° |
| 2026-05-07 18:47 | 43.62158 | 1.37720 | 500 ft | 26 kts | 144° |
| 2026-05-07 18:47 | 43.62056 | 1.37825 | 500 ft | 17 kts | 143° |
| 2026-05-07 18:47 | 43.61949 | 1.37936 | 500 ft | 21 kts | 142° |
| 2026-05-07 18:48 | 43.61833 | 1.38060 | 500 ft | 18 kts | 144° |
| 2026-05-07 18:48 | 43.61748 | 1.38145 | 500 ft | 15 kts | 144° |
| 2026-05-07 18:48 | 43.61663 | 1.38160 | 500 ft | 12 kts | 206° |
| 2026-05-07 18:48 | 43.61599 | 1.38055 | 487 ft | 13 kts | 253° |
| 2026-05-07 18:49 | 43.61610 | 1.37972 | 486 ft | 11 kts | 302° |
| 2026-05-07 18:49 | 43.61685 | 1.37892 | 486 ft | 22 kts | 325° |
| 2026-05-07 18:49 | 43.61987 | 1.37582 | 501 ft | 96 kts | 323° |
| 2026-05-07 18:49 | 43.62736 | 1.36802 | 540 ft | 167 kts | 322° |
| 2026-05-07 18:50 | 43.63684 | 1.35820 | 1369 ft | 172 kts | 323° |
| 2026-05-07 18:50 | 43.64332 | 1.35173 | 2000 ft | 178 kts | 324° |
| 2026-05-07 18:50 | 43.65415 | 1.34106 | 2524 ft | 206 kts | 323° |
| 2026-05-07 18:50 | 43.66689 | 1.33050 | 3254 ft | 222 kts | 340° |
| 2026-05-07 18:51 | 43.68829 | 1.33208 | 4153 ft | 252 kts | 26° |
| 2026-05-07 18:51 | 43.69765 | 1.34231 | 4764 ft | 259 kts | 50° |
| 2026-05-07 18:51 | 43.70788 | 1.36322 | 5770 ft | 267 kts | 59° |
| 2026-05-07 18:51 | 43.71685 | 1.38607 | 6541 ft | 273 kts | 64° |
| 2026-05-07 18:52 | 43.72477 | 1.41005 | 6953 ft | 276 kts | 66° |
| 2026-05-07 18:52 | 43.73242 | 1.43412 | 7053 ft | 277 kts | 66° |
| 2026-05-07 18:52 | 43.74031 | 1.45882 | 7075 ft | 278 kts | 66° |
| 2026-05-07 18:52 | 43.74812 | 1.48306 | 7410 ft | 280 kts | 66° |
| 2026-05-07 18:53 | 43.75614 | 1.50785 | 8353 ft | 283 kts | 66° |
| 2026-05-07 18:53 | 43.76421 | 1.53278 | 9597 ft | 284 kts | 65° |
| 2026-05-07 18:53 | 43.77237 | 1.55796 | 10699 ft | 294 kts | 65° |
| 2026-05-07 18:53 | 43.78116 | 1.58506 | 11278 ft | 321 kts | 65° |
| 2026-05-07 18:54 | 43.79060 | 1.61417 | 11931 ft | 341 kts | 65° |
| 2026-05-07 18:54 | 43.80043 | 1.64453 | 12877 ft | 350 kts | 66° |
| 2026-05-07 18:54 | 43.81047 | 1.67557 | 13857 ft | 356 kts | 66° |
| 2026-05-07 18:54 | 43.82068 | 1.70717 | 14820 ft | 362 kts | 66° |
| 2026-05-07 18:55 | 43.83106 | 1.73933 | 15767 ft | 368 kts | 66° |
| 2026-05-07 18:55 | 43.84159 | 1.77192 | 16683 ft | 374 kts | 65° |
| 2026-05-07 18:55 | 43.85244 | 1.80491 | 17566 ft | 379 kts | 64° |
| 2026-05-07 18:55 | 43.86334 | 1.83791 | 18446 ft | 384 kts | 64° |
| 2026-05-07 18:56 | 43.87451 | 1.87181 | 19320 ft | 389 kts | 64° |
| 2026-05-07 18:56 | 43.88576 | 1.90616 | 20194 ft | 394 kts | 64° |
| 2026-05-07 18:56 | 43.89688 | 1.94130 | 21052 ft | 399 kts | 66° |
| 2026-05-07 18:56 | 43.90792 | 1.97696 | 21892 ft | 405 kts | 66° |
| 2026-05-07 18:57 | 43.91918 | 2.01302 | 22704 ft | 410 kts | 66° |
| 2026-05-07 18:57 | 43.93078 | 2.04943 | 23486 ft | 415 kts | 65° |
| 2026-05-07 18:57 | 43.94294 | 2.08606 | 24254 ft | 420 kts | 65° |
| 2026-05-07 18:57 | 43.95530 | 2.12307 | 24986 ft | 425 kts | 65° |
| 2026-05-07 18:58 | 43.96779 | 2.16053 | 25718 ft | 430 kts | 65° |
| 2026-05-07 18:58 | 43.98025 | 2.19806 | 26400 ft | 435 kts | 65° |
| 2026-05-07 18:58 | 43.99300 | 2.23649 | 27085 ft | 439 kts | 65° |
| 2026-05-07 18:58 | 44.00583 | 2.27526 | 27750 ft | 444 kts | 65° |
| 2026-05-07 18:59 | 44.01878 | 2.31450 | 28379 ft | 449 kts | 65° |
| 2026-05-07 18:59 | 44.03188 | 2.35426 | 28996 ft | 454 kts | 65° |
| 2026-05-07 18:59 | 44.04507 | 2.39433 | 29564 ft | 458 kts | 65° |
| 2026-05-07 18:59 | 44.05955 | 2.43393 | 30131 ft | 463 kts | 59° |
| 2026-05-07 19:00 | 44.07832 | 2.47042 | 30661 ft | 466 kts | 49° |
| 2026-05-07 19:00 | 44.10119 | 2.50262 | 31192 ft | 470 kts | 43° |
| 2026-05-07 19:00 | 44.12531 | 2.53364 | 31687 ft | 474 kts | 42° |
| 2026-05-07 19:00 | 44.14971 | 2.56486 | 32161 ft | 478 kts | 42° |
| 2026-05-07 19:01 | 44.17427 | 2.59641 | 32602 ft | 482 kts | 43° |
| 2026-05-07 19:01 | 44.19896 | 2.62833 | 33028 ft | 486 kts | 43° |
| 2026-05-07 19:01 | 44.22379 | 2.66037 | 33447 ft | 489 kts | 43° |
| 2026-05-07 19:01 | 44.24885 | 2.69272 | 33837 ft | 493 kts | 43° |
| 2026-05-07 19:02 | 44.27412 | 2.72540 | 34224 ft | 496 kts | 43° |
| 2026-05-07 19:02 | 44.29944 | 2.75822 | 34659 ft | 497 kts | 43° |
| 2026-05-07 19:02 | 44.32470 | 2.79101 | 35212 ft | 495 kts | 43° |
| 2026-05-07 19:02 | 44.34988 | 2.82375 | 35709 ft | 494 kts | 43° |
| 2026-05-07 19:03 | 44.37479 | 2.85617 | 35962 ft | 496 kts | 43° |
| 2026-05-07 19:03 | 44.42457 | 2.92110 | 36002 ft | 485 kts | 43° |
| 2026-05-07 19:04 | 44.47390 | 2.98561 | 35994 ft | 484 kts | 43° |
| 2026-05-07 19:04 | 44.52309 | 3.05009 | 36001 ft | 485 kts | 43° |
| 2026-05-07 19:05 | 44.57245 | 3.11495 | 36000 ft | 488 kts | 43° |
| 2026-05-07 19:05 | 44.61738 | 3.18630 | 36001 ft | 489 kts | 57° |
| 2026-05-07 19:06 | 44.65217 | 3.26848 | 36000 ft | 489 kts | 60° |
| 2026-05-07 19:06 | 44.70158 | 3.39373 | 35999 ft | 488 kts | 61° |
| 2026-05-07 19:07 | 44.73454 | 3.47708 | 36001 ft | 488 kts | 60° |
| 2026-05-07 19:07 | 44.76755 | 3.56019 | 36001 ft | 489 kts | 60° |
| 2026-05-07 19:08 | 44.80078 | 3.64387 | 36001 ft | 489 kts | 60° |
| 2026-05-07 19:08 | 44.83384 | 3.72748 | 36001 ft | 488 kts | 61° |
| 2026-05-07 19:09 | 44.86675 | 3.81097 | 36001 ft | 487 kts | 61° |
| 2026-05-07 19:09 | 44.89967 | 3.89474 | 36001 ft | 488 kts | 61° |
| 2026-05-07 19:10 | 44.93247 | 3.97844 | 35999 ft | 487 kts | 61° |
| 2026-05-07 19:10 | 44.96495 | 4.06159 | 35999 ft | 487 kts | 61° |
| 2026-05-07 19:11 | 44.99770 | 4.14568 | 35999 ft | 487 kts | 61° |
| 2026-05-07 19:11 | 45.03034 | 4.22971 | 36001 ft | 490 kts | 61° |
| 2026-05-07 19:12 | 45.06308 | 4.31422 | 36001 ft | 488 kts | 61° |
| 2026-05-07 19:12 | 45.09562 | 4.39855 | 36001 ft | 488 kts | 61° |
| 2026-05-07 19:13 | 45.12784 | 4.48232 | 36001 ft | 487 kts | 61° |
| 2026-05-07 19:13 | 45.16020 | 4.56668 | 35997 ft | 487 kts | 61° |
| 2026-05-07 19:14 | 45.19243 | 4.65093 | 36000 ft | 485 kts | 61° |
| 2026-05-07 19:14 | 45.22450 | 4.73488 | 36001 ft | 483 kts | 62° |
| 2026-05-07 19:15 | 45.25636 | 4.81881 | 35995 ft | 482 kts | 62° |
| 2026-05-07 19:15 | 45.28808 | 4.90257 | 35999 ft | 481 kts | 62° |
| 2026-05-07 19:16 | 45.31951 | 4.98580 | 36001 ft | 481 kts | 62° |
| 2026-05-07 19:16 | 45.35101 | 5.06942 | 35999 ft | 475 kts | 62° |
| 2026-05-07 19:17 | 45.38231 | 5.15277 | 35997 ft | 481 kts | 62° |
| 2026-05-07 19:17 | 45.41388 | 5.23704 | 36001 ft | 482 kts | 62° |
| 2026-05-07 19:18 | 45.44538 | 5.32146 | 35998 ft | 483 kts | 62° |
| 2026-05-07 19:18 | 45.47747 | 5.40559 | 36001 ft | 483 kts | 58° |
| 2026-05-07 19:19 | 45.52043 | 5.47834 | 36001 ft | 483 kts | 44° |
| 2026-05-07 19:19 | 45.56991 | 5.54326 | 36001 ft | 483 kts | 41° |
| 2026-05-07 19:20 | 45.62013 | 5.60684 | 36001 ft | 481 kts | 41° |
| 2026-05-07 19:20 | 45.67014 | 5.67037 | 35998 ft | 481 kts | 41° |
| 2026-05-07 19:21 | 45.72013 | 5.73442 | 36000 ft | 481 kts | 41° |
| 2026-05-07 19:21 | 45.77003 | 5.79850 | 36000 ft | 481 kts | 41° |
| 2026-05-07 19:22 | 45.81961 | 5.86230 | 35997 ft | 481 kts | 41° |
| 2026-05-07 19:22 | 45.86957 | 5.92674 | 36001 ft | 483 kts | 41° |
| 2026-05-07 19:23 | 45.91948 | 5.99125 | 36000 ft | 482 kts | 42° |
| 2026-05-07 19:23 | 45.96937 | 6.05591 | 36001 ft | 483 kts | 42° |
| 2026-05-07 19:24 | 46.01932 | 6.12081 | 36000 ft | 484 kts | 42° |
| 2026-05-07 19:24 | 46.06928 | 6.18589 | 36000 ft | 484 kts | 42° |
| 2026-05-07 19:25 | 46.11882 | 6.25171 | 36001 ft | 485 kts | 44° |
| 2026-05-07 19:25 | 46.16631 | 6.31969 | 36000 ft | 483 kts | 45° |
| 2026-05-07 19:26 | 46.21384 | 6.38855 | 35999 ft | 485 kts | 45° |
| 2026-05-07 19:26 | 46.26170 | 6.45733 | 36001 ft | 486 kts | 44° |
| 2026-05-07 19:27 | 46.30993 | 6.52624 | 35999 ft | 487 kts | 44° |
| 2026-05-07 19:27 | 46.35808 | 6.59510 | 35999 ft | 486 kts | 44° |
| 2026-05-07 19:28 | 46.40640 | 6.66334 | 35999 ft | 484 kts | 43° |
| 2026-05-07 19:28 | 46.45432 | 6.73155 | 36000 ft | 482 kts | 44° |
| 2026-05-07 19:29 | 46.50174 | 6.80023 | 36000 ft | 482 kts | 44° |
| 2026-05-07 19:29 | 46.54911 | 6.86957 | 35997 ft | 484 kts | 45° |
| 2026-05-07 19:30 | 46.59269 | 6.94434 | 36001 ft | 485 kts | 50° |
| 2026-05-07 19:30 | 46.63524 | 7.02064 | 36000 ft | 485 kts | 50° |
| 2026-05-07 19:31 | 46.67720 | 7.09663 | 36001 ft | 485 kts | 50° |
| 2026-05-07 19:31 | 46.71946 | 7.17328 | 36000 ft | 484 kts | 50° |
| 2026-05-07 19:32 | 46.76162 | 7.25007 | 36000 ft | 485 kts | 51° |
| 2026-05-07 19:32 | 46.80370 | 7.32703 | 36001 ft | 485 kts | 51° |
| 2026-05-07 19:33 | 46.84580 | 7.40403 | 36000 ft | 484 kts | 51° |
| 2026-05-07 19:33 | 46.88756 | 7.48052 | 36000 ft | 484 kts | 51° |
| 2026-05-07 19:34 | 46.92945 | 7.55760 | 36001 ft | 483 kts | 51° |
| 2026-05-07 19:34 | 46.97128 | 7.63478 | 36001 ft | 484 kts | 51° |
| 2026-05-07 19:35 | 47.01304 | 7.71204 | 35999 ft | 484 kts | 51° |
| 2026-05-07 19:35 | 47.04777 | 7.77643 | 36001 ft | 483 kts | 51° |
| 2026-05-07 19:36 | 47.08947 | 7.85396 | 35999 ft | 484 kts | 51° |
| 2026-05-07 19:36 | 47.13090 | 7.93192 | 35996 ft | 484 kts | 54° |
| 2026-05-07 19:37 | 47.16767 | 8.01457 | 36001 ft | 483 kts | 58° |
| 2026-05-07 19:37 | 47.20324 | 8.09835 | 36001 ft | 482 kts | 58° |
| 2026-05-07 19:38 | 47.23860 | 8.18234 | 36001 ft | 483 kts | 58° |
| 2026-05-07 19:38 | 47.27440 | 8.26614 | 35998 ft | 483 kts | 55° |
| 2026-05-07 19:39 | 47.32020 | 8.33794 | 35997 ft | 482 kts | 37° |
| 2026-05-07 19:39 | 47.37752 | 8.38722 | 35999 ft | 481 kts | 26° |
| 2026-05-07 19:40 | 47.43785 | 8.43016 | 35999 ft | 481 kts | 25° |
| 2026-05-07 19:40 | 47.49841 | 8.47232 | 36000 ft | 481 kts | 25° |
| 2026-05-07 19:41 | 47.55891 | 8.51491 | 36002 ft | 481 kts | 25° |
| 2026-05-07 19:41 | 47.61923 | 8.55783 | 36000 ft | 481 kts | 25° |
| 2026-05-07 19:42 | 47.67923 | 8.60048 | 35998 ft | 481 kts | 25° |
| 2026-05-07 19:42 | 47.73961 | 8.64322 | 36002 ft | 481 kts | 25° |
| 2026-05-07 19:43 | 47.80005 | 8.68641 | 36002 ft | 481 kts | 25° |
| 2026-05-07 19:43 | 47.86033 | 8.72980 | 36000 ft | 482 kts | 25° |
| 2026-05-07 19:44 | 47.92084 | 8.77351 | 35999 ft | 482 kts | 25° |
| 2026-05-07 19:44 | 47.98132 | 8.81732 | 36001 ft | 483 kts | 25° |
| 2026-05-07 19:45 | 48.04135 | 8.86087 | 35998 ft | 482 kts | 25° |
| 2026-05-07 19:45 | 48.10180 | 8.90484 | 35996 ft | 483 kts | 26° |
| 2026-05-07 19:46 | 48.16345 | 8.94500 | 35999 ft | 483 kts | 16° |
| 2026-05-07 19:46 | 48.22957 | 8.96202 | 36000 ft | 482 kts | 6° |
| 2026-05-07 19:47 | 48.29596 | 8.97249 | 35996 ft | 482 kts | 5° |
| 2026-05-07 19:47 | 48.36269 | 8.98272 | 36002 ft | 481 kts | 5° |
| 2026-05-07 19:48 | 48.42929 | 8.99287 | 36002 ft | 480 kts | 5° |
| 2026-05-07 19:48 | 48.49571 | 9.00286 | 36000 ft | 480 kts | 5° |
| 2026-05-07 19:49 | 48.52874 | 9.00802 | 35794 ft | 472 kts | 6° |
| 2026-05-07 19:49 | 48.56143 | 9.01313 | 34926 ft | 474 kts | 6° |
| 2026-05-07 19:49 | 48.59445 | 9.01826 | 33839 ft | 481 kts | 5° |
| 2026-05-07 19:49 | 48.62802 | 9.02344 | 32696 ft | 487 kts | 5° |
| 2026-05-07 19:50 | 48.66180 | 9.02985 | 31530 ft | 492 kts | 8° |
| 2026-05-07 19:50 | 48.69584 | 9.03838 | 30447 ft | 496 kts | 9° |
| 2026-05-07 19:50 | 48.73007 | 9.04706 | 29594 ft | 501 kts | 9° |
| 2026-05-07 19:50 | 48.76452 | 9.05561 | 28775 ft | 501 kts | 9° |
| 2026-05-07 19:51 | 48.79831 | 9.06386 | 27989 ft | 495 kts | 9° |
| 2026-05-07 19:51 | 48.83213 | 9.07206 | 27206 ft | 488 kts | 9° |
| 2026-05-07 19:51 | 48.86555 | 9.08013 | 26412 ft | 482 kts | 9° |
| 2026-05-07 19:51 | 48.89846 | 9.08785 | 25658 ft | 476 kts | 7° |
| 2026-05-07 19:52 | 48.93123 | 9.09283 | 24900 ft | 469 kts | 4° |
| 2026-05-07 19:52 | 48.96363 | 9.09685 | 24150 ft | 464 kts | 4° |
| 2026-05-07 19:52 | 48.99567 | 9.10098 | 23409 ft | 459 kts | 5° |
| 2026-05-07 19:52 | 49.02732 | 9.10522 | 22684 ft | 454 kts | 5° |
| 2026-05-07 19:53 | 49.05863 | 9.10952 | 21951 ft | 449 kts | 5° |
| 2026-05-07 19:53 | 49.08961 | 9.11387 | 21238 ft | 444 kts | 5° |
| 2026-05-07 19:53 | 49.12021 | 9.11820 | 20529 ft | 439 kts | 5° |
| 2026-05-07 19:53 | 49.15019 | 9.12247 | 19836 ft | 435 kts | 5° |
| 2026-05-07 19:54 | 49.18016 | 9.12675 | 19142 ft | 430 kts | 5° |
| 2026-05-07 19:54 | 49.20985 | 9.13099 | 18471 ft | 426 kts | 5° |
| 2026-05-07 19:54 | 49.23922 | 9.13520 | 17785 ft | 422 kts | 5° |
| 2026-05-07 19:54 | 49.26831 | 9.13941 | 17103 ft | 418 kts | 5° |
| 2026-05-07 19:55 | 49.29687 | 9.14627 | 16411 ft | 413 kts | 11° |
| 2026-05-07 19:55 | 49.32482 | 9.15584 | 15774 ft | 409 kts | 13° |
| 2026-05-07 19:55 | 49.35253 | 9.16572 | 15115 ft | 406 kts | 13° |
| 2026-05-07 19:55 | 49.37995 | 9.17551 | 14465 ft | 402 kts | 13° |
| 2026-05-07 19:56 | 49.40705 | 9.18516 | 13814 ft | 398 kts | 13° |
| 2026-05-07 19:56 | 49.43396 | 9.19474 | 13191 ft | 395 kts | 13° |
| 2026-05-07 19:56 | 49.46066 | 9.20424 | 12559 ft | 392 kts | 13° |
| 2026-05-07 19:56 | 49.48713 | 9.21366 | 11932 ft | 388 kts | 13° |
| 2026-05-07 19:57 | 49.51331 | 9.22299 | 11314 ft | 385 kts | 13° |
| 2026-05-07 19:57 | 49.53930 | 9.23226 | 10801 ft | 381 kts | 13° |
| 2026-05-07 19:57 | 49.56525 | 9.24152 | 10698 ft | 381 kts | 13° |
| 2026-05-07 19:57 | 49.59101 | 9.25073 | 10610 ft | 380 kts | 13° |
| 2026-05-07 19:58 | 49.61647 | 9.25984 | 10474 ft | 362 kts | 13° |
| 2026-05-07 19:58 | 49.63959 | 9.26814 | 10338 ft | 322 kts | 13° |
| 2026-05-07 19:58 | 49.66029 | 9.27557 | 10193 ft | 290 kts | 13° |
| 2026-05-07 19:58 | 49.67973 | 9.28254 | 10090 ft | 289 kts | 13° |
| 2026-05-07 19:59 | 49.69944 | 9.28961 | 9953 ft | 291 kts | 13° |
| 2026-05-07 19:59 | 49.71906 | 9.29671 | 9903 ft | 290 kts | 13° |
| 2026-05-07 19:59 | 49.73878 | 9.30380 | 9859 ft | 290 kts | 13° |
| 2026-05-07 19:59 | 49.75817 | 9.31076 | 9809 ft | 289 kts | 13° |
| 2026-05-07 20:00 | 49.77777 | 9.31780 | 9725 ft | 289 kts | 13° |
| 2026-05-07 20:00 | 49.79735 | 9.32485 | 9661 ft | 289 kts | 13° |
| 2026-05-07 20:00 | 49.81696 | 9.33193 | 9582 ft | 289 kts | 13° |
| 2026-05-07 20:00 | 49.83651 | 9.33898 | 9467 ft | 289 kts | 13° |
| 2026-05-07 20:01 | 49.85618 | 9.34556 | 9383 ft | 288 kts | 8° |
| 2026-05-07 20:01 | 49.87616 | 9.34608 | 9322 ft | 287 kts | 355° |
| 2026-05-07 20:01 | 49.89605 | 9.34280 | 9247 ft | 287 kts | 353° |
| 2026-05-07 20:01 | 49.91584 | 9.33908 | 9191 ft | 287 kts | 353° |
| 2026-05-07 20:02 | 49.93565 | 9.33540 | 9126 ft | 287 kts | 353° |
| 2026-05-07 20:02 | 49.95545 | 9.33177 | 9059 ft | 286 kts | 353° |
| 2026-05-07 20:02 | 49.97522 | 9.32818 | 8987 ft | 286 kts | 353° |
| 2026-05-07 20:02 | 49.99500 | 9.32461 | 8921 ft | 285 kts | 353° |
| 2026-05-07 20:03 | 50.01451 | 9.32114 | 8863 ft | 285 kts | 353° |
| 2026-05-07 20:03 | 50.03418 | 9.31761 | 8796 ft | 285 kts | 353° |
| 2026-05-07 20:03 | 50.05387 | 9.31405 | 8726 ft | 285 kts | 353° |
| 2026-05-07 20:03 | 50.07362 | 9.31049 | 8663 ft | 285 kts | 353° |
| 2026-05-07 20:04 | 50.09329 | 9.30694 | 8598 ft | 284 kts | 353° |
| 2026-05-07 20:04 | 50.11293 | 9.30340 | 8535 ft | 284 kts | 353° |
| 2026-05-07 20:04 | 50.13255 | 9.29986 | 8468 ft | 283 kts | 353° |
| 2026-05-07 20:04 | 50.15211 | 9.29632 | 8404 ft | 283 kts | 353° |
| 2026-05-07 20:05 | 50.17167 | 9.29279 | 8346 ft | 283 kts | 353° |
| 2026-05-07 20:05 | 50.19120 | 9.28927 | 8278 ft | 282 kts | 353° |
| 2026-05-07 20:05 | 50.21059 | 9.28454 | 8201 ft | 282 kts | 345° |
| 2026-05-07 20:05 | 50.22793 | 9.27089 | 8150 ft | 280 kts | 319° |
| 2026-05-07 20:06 | 50.23961 | 9.24687 | 8088 ft | 279 kts | 295° |
| 2026-05-07 20:06 | 50.24686 | 9.21875 | 8017 ft | 280 kts | 289° |
| 2026-05-07 20:06 | 50.25330 | 9.19009 | 7947 ft | 279 kts | 287° |
| 2026-05-07 20:06 | 50.25933 | 9.16127 | 7884 ft | 279 kts | 288° |
| 2026-05-07 20:07 | 50.26564 | 9.13256 | 7816 ft | 279 kts | 286° |
| 2026-05-07 20:07 | 50.26738 | 9.10256 | 7759 ft | 278 kts | 262° |
| 2026-05-07 20:07 | 50.26238 | 9.07346 | 7702 ft | 278 kts | 250° |
| 2026-05-07 20:07 | 50.25582 | 9.04547 | 7630 ft | 278 kts | 249° |
| 2026-05-07 20:08 | 50.24907 | 9.01717 | 7567 ft | 278 kts | 250° |
| 2026-05-07 20:08 | 50.24236 | 8.98883 | 7497 ft | 277 kts | 250° |
| 2026-05-07 20:08 | 50.23572 | 8.96064 | 7450 ft | 277 kts | 250° |
| 2026-05-07 20:08 | 50.22907 | 8.93237 | 7381 ft | 277 kts | 250° |
| 2026-05-07 20:09 | 50.22243 | 8.90416 | 7315 ft | 276 kts | 250° |
| 2026-05-07 20:09 | 50.21580 | 8.87596 | 7071 ft | 277 kts | 250° |
| 2026-05-07 20:09 | 50.20923 | 8.84810 | 6801 ft | 268 kts | 250° |
| 2026-05-07 20:10 | 50.19695 | 8.79609 | 6441 ft | 246 kts | 250° |
| 2026-05-07 20:10 | 50.19115 | 8.77157 | 6288 ft | 236 kts | 250° |
| 2026-05-07 20:10 | 50.18558 | 8.74799 | 6142 ft | 227 kts | 250° |
| 2026-05-07 20:10 | 50.18024 | 8.72539 | 6003 ft | 218 kts | 250° |
| 2026-05-07 20:11 | 50.17512 | 8.70378 | 5848 ft | 206 kts | 250° |
| 2026-05-07 20:11 | 50.17034 | 8.68360 | 5667 ft | 190 kts | 250° |
| 2026-05-07 20:11 | 50.16591 | 8.66493 | 5390 ft | 180 kts | 250° |
| 2026-05-07 20:11 | 50.16155 | 8.64655 | 5103 ft | 180 kts | 250° |
| 2026-05-07 20:12 | 50.15727 | 8.62854 | 4845 ft | 173 kts | 250° |
| 2026-05-07 20:12 | 50.15312 | 8.61112 | 4484 ft | 170 kts | 250° |
| 2026-05-07 20:12 | 50.14904 | 8.59396 | 4160 ft | 171 kts | 250° |
| 2026-05-07 20:12 | 50.14492 | 8.57671 | 3894 ft | 169 kts | 250° |
| 2026-05-07 20:13 | 50.14084 | 8.55959 | 3621 ft | 168 kts | 250° |
| 2026-05-07 20:13 | 50.13678 | 8.54257 | 3364 ft | 167 kts | 250° |
| 2026-05-07 20:13 | 50.13272 | 8.52560 | 3077 ft | 168 kts | 250° |
| 2026-05-07 20:13 | 50.12868 | 8.50871 | 2926 ft | 165 kts | 250° |
| 2026-05-07 20:14 | 50.12466 | 8.49189 | 2913 ft | 166 kts | 250° |
| 2026-05-07 20:14 | 50.12063 | 8.47503 | 2914 ft | 166 kts | 250° |
| 2026-05-07 20:14 | 50.11660 | 8.45822 | 2916 ft | 166 kts | 250° |
| 2026-05-07 20:14 | 50.11257 | 8.44140 | 2920 ft | 166 kts | 250° |
| 2026-05-07 20:15 | 50.10850 | 8.42460 | 2918 ft | 166 kts | 250° |
| 2026-05-07 20:15 | 50.10445 | 8.40783 | 2917 ft | 166 kts | 250° |
| 2026-05-07 20:15 | 50.10038 | 8.39094 | 2916 ft | 166 kts | 250° |
| 2026-05-07 20:15 | 50.09632 | 8.37413 | 2918 ft | 166 kts | 250° |
| 2026-05-07 20:16 | 50.09226 | 8.35732 | 2918 ft | 166 kts | 250° |
| 2026-05-07 20:16 | 50.08821 | 8.34052 | 2918 ft | 166 kts | 250° |
| 2026-05-07 20:16 | 50.08317 | 8.32455 | 2916 ft | 166 kts | 232° |
| 2026-05-07 20:16 | 50.07413 | 8.31350 | 2917 ft | 165 kts | 206° |
| 2026-05-07 20:17 | 50.06419 | 8.30732 | 2898 ft | 143 kts | 199° |
| 2026-05-07 20:17 | 50.05505 | 8.30264 | 2910 ft | 137 kts | 198° |
| 2026-05-07 20:17 | 50.04600 | 8.29831 | 2914 ft | 134 kts | 198° |
| 2026-05-07 20:17 | 50.03729 | 8.29428 | 2903 ft | 128 kts | 198° |
| 2026-05-07 20:18 | 50.02852 | 8.29423 | 2910 ft | 128 kts | 163° |
| 2026-05-07 20:18 | 50.01998 | 8.29829 | 2919 ft | 128 kts | 163° |
| 2026-05-07 20:18 | 50.01148 | 8.30242 | 2918 ft | 128 kts | 163° |
| 2026-05-07 20:18 | 50.00311 | 8.30650 | 2921 ft | 128 kts | 163° |
| 2026-05-07 20:19 | 49.99520 | 8.31278 | 2919 ft | 129 kts | 142° |
| 2026-05-07 20:19 | 49.98822 | 8.32191 | 2731 ft | 136 kts | 139° |
| 2026-05-07 20:19 | 49.98235 | 8.33325 | 2421 ft | 134 kts | 107° |
| 2026-05-07 20:19 | 49.98225 | 8.34691 | 2405 ft | 126 kts | 75° |
| 2026-05-07 20:20 | 49.98426 | 8.35539 | 2416 ft | 127 kts | 65° |
| 2026-05-07 20:20 | 49.98795 | 8.36790 | 2420 ft | 127 kts | 66° |
| 2026-05-07 20:20 | 49.99115 | 8.38079 | 2397 ft | 129 kts | 71° |
| 2026-05-07 20:20 | 49.99416 | 8.39389 | 2220 ft | 128 kts | 69° |
| 2026-05-07 20:21 | 49.99726 | 8.40685 | 2056 ft | 127 kts | 69° |
| 2026-05-07 20:21 | 50.00034 | 8.41974 | 1880 ft | 127 kts | 69° |
| 2026-05-07 20:21 | 50.00342 | 8.43257 | 1712 ft | 126 kts | 69° |
| 2026-05-07 20:21 | 50.00654 | 8.44536 | 1530 ft | 126 kts | 69° |
| 2026-05-07 20:22 | 50.00965 | 8.45813 | 1378 ft | 127 kts | 69° |
| 2026-05-07 20:22 | 50.01244 | 8.47099 | 1268 ft | 125 kts | 72° |
| 2026-05-07 20:22 | 50.01534 | 8.48420 | 1077 ft | 130 kts | 69° |
| 2026-05-07 20:22 | 50.01859 | 8.49706 | 903 ft | 125 kts | 68° |
| 2026-05-07 20:23 | 50.02170 | 8.50972 | 721 ft | 125 kts | 70° |
| 2026-05-07 20:23 | 50.02467 | 8.52242 | 558 ft | 126 kts | 69° |
| 2026-05-07 20:23 | 50.02775 | 8.53512 | 378 ft | 125 kts | 70° |
| 2026-05-07 20:23 | 50.03070 | 8.54726 | 354 ft | 112 kts | 71° |
| 2026-05-07 20:24 | 50.03270 | 8.55572 | 358 ft | 44 kts | 70° |
| 2026-05-07 20:24 | 50.03343 | 8.55731 | 362 ft | 16 kts | 40° |
| 2026-05-07 20:24 | 50.03399 | 8.55808 | 365 ft | 9 kts | 37° |
| 2026-05-07 20:24 | 50.03459 | 8.55880 | 368 ft | 13 kts | 39° |